Orem, UT

9:18 AM MDT on May 27, 2015 (GMT -0600)
Central Utah Water District | | Change Station
CLOSE
Current Station
Personal Weather Station
Location: Orem, UT
Elevation: 4750 ft
Nearby Weather Stations

Elev 4750 ft 40.27 °N, 111.70 °W | Updated 7 seconds ago

Partly Cloudy
Partly Cloudy
61.2 °F
Feels Like 61.2 °F
N
1.0
Wind Variable Wind from West
Gusts 4.0 mph

Today
High -- | Low -- °F
--% Chance of Precip.
Yesterday
High -- | Low -- °F
Precip. -- in
6:01 AM 8:46 PM
Waxing Gibbous, 68% visible
Pressure 30.09 in
Visibility 10.0 miles
Clouds Few 8000 ft
Dew Point 50 °F
Humidity 66%
Rainfall 0.00 in
Snow Depth Not available.
UV 3 out of 12
Pollen 5.60 out of 12
Air Quality Not available.
Flu Activity Sporadic
SPECI KPVU 271448Z 12003KT 10SM FEW080 14/07 A3009

More Conditions Fewer Conditions

Pressure 30.09 in
Visibility 10.0 miles
Clouds Few 8000 ft
Dew Point 50 °F
Humidity 66%
Rainfall 0.00 in
Snow Depth Not available.
UV 3 out of 12
Pollen 5.60 out of 12
Air Quality Not available.
Flu Activity Sporadic
SPECI KPVU 271448Z 12003KT 10SM FEW080 14/07 A3009

More Conditions Fewer Conditions

Nowcast | as of 8:32 am MDT on May 27, 2015

An area showers and isolated thunderstorms extending from Tooele County to the Great Salt Lake will move into the northern Wasatch front this morning. The strongest storms at 830 am were located over the Great Salt Lake in eastern Box Elder County spreading into western Weber and Cache County through 1030 am. Expect brief heavy rain...occasional cloud to ground lightning...strong gusty winds and small hail.

×

10-Day Weather Forecast

Almanac

Astronomy

May. 27, 2015 Rise Set
Actual Time
Civil Twilight
Nautical Twilight
Astronomical Twilight
Moon
Length of Visible Light
Length of Day
Tomorrow will be .
, % of the Moon is Illuminated

Today's Extremes

State Highs State Lows

Community

WunderPhotos

Upload Photos

1,824,695 photos uploaded!

WunderBlogs® & News

Nearby

Air Quality

  Air Quality AQ Index Pollutant
Not available.

Snow Depth

Station Depth Elevation

Earthquake Activity

City Distance Mag. Time & Date
Minimum magnitude displayed is 2.5.

Coastal Water Temperatures

Place Temperature

Stations

Nearby Weather Stations

Station Location Temp. Windchill Dew Point Humidity Wind Precip. Elev Updated Type